Αρχική σελίδα
METAR-TAF:

METAR-TAF

Αεροδρόμια :

Mar del Plata, Αργεντινή

γεωγραφικό πλάτος: 37-56S, γεωγραφικό μήκος: 057-35W, υψόμετρο: 18 μ

Παρών καιρός

Η αναφορά έγινε 33 λεπτά πριν, στις 01:00 UTC
Άνεμος 12 kt από
Θερμοκρασία 9°C
Υγρασία 76%
Πίεση 1016 hPa
Ορατότητα 10 χλμ και άνω
Δεν υπάρχουν νέφη με βάση κάτω από τα 1500 μ. και δεν υπάρχουν νέφη σωρειτομελανίτες.

METAR: SAZM 230100Z 31012KT CAVOK 09/05 Q1016

Χρόνος: 22:33 (01:33 UTC)

Πρόγνωση Καιρού

Η αναφορά έγινε 2 ώρες και 33 λεπτά πριν, στις 23:00 UTC
Η πρόγνωση ισχύει από τις 23 στις 00 UTC έως τις 23 στις 24 UTC
Άνεμος 15 kt από Δ/BΔ
Ορατότητα 10 χλμ και άνω
Δεν υπάρχουν νέφη με βάση κάτω από τα 1500 μ. και δεν υπάρχουν νέφη σωρειτομελανίτες.
Καθιστάμενος
από 23 στις 18 UTC έως τις 23 στις 20 UTC
Άνεμος 10 kt από Β

TAF: SAZM 222300Z 2300/2324 29015KT CAVOK TX19/2318Z TN05/2310Z BECMG 2318/2320 36010KT

Μετεωρολογικές αναφορές και προγνώσεις για περισσότερα από 4000 αεροδρόμια (δελτία METAR και TAF).

Οι διαθέσιμοι σταθμοί απεικονίζονται στο χάρτη με κίτρινες και κόκκινες κουκκίδες.

Μετακινήστε το ποντίκι πάνω από τις κουκκίδες για να δείτε το όνομα του σταθμού.

Στη συνέχεια, κάντε κλικ για να δείτε τις μετεωρολογικές αναφορές και τις προγνώσεις καιρού.

Για να αλλάξετε το χάρτη: κάντε κλικ στα πράσινα κουμπιά με τον μαύρο σταυρό για να ζουμάρετε, στο πράσινο κουμπί με την παύλα για να αφαιρέσετε το ζουμ ή στα πράσινα βέλη για να αντιπαραβάλλετε χάρτες.


METAR-TAF: